| time (UTC) | temp F | wind direction | speed knots | gust knots | rain 1hr in | rain 24hr in | rain mn in | humidity % | barometer mb |
| 20260901220253 | 86 | 328 | 0.9 | 2.6 | 0.00 | 0.00 | 0.00 | 60 | 1021.7 |
| 20260901215753 | 86 | 0 | 0.0 | 4.3 | 0.00 | 0.00 | 0.00 | 60 | 1021.7 |
| 20260901215256 | 86 | 328 | 0.9 | 4.3 | 0.00 | 0.00 | 0.00 | 60 | 1021.7 |
| 20260901214753 | 87 | 0 | 0.0 | 5.2 | 0.00 | 0.00 | 0.00 | 60 | 1021.7 |
| 20260901214253 | 87 | 328 | 0.9 | 5.2 | 0.00 | 0.00 | 0.00 | 59 | 1021.7 |
| 20260901213755 | 87 | 328 | 0.9 | 3.5 | 0.00 | 0.00 | 0.00 | 59 | 1021.6 |
| 20260901213255 | 87 | 328 | 0.9 | 3.5 | 0.00 | 0.00 | 0.00 | 59 | 1021.6 |
| 20260901212753 | 87 | 0 | 0.0 | 4.3 | 0.00 | 0.00 | 0.00 | 59 | 1021.6 |
| 20260901212253 | 87 | 328 | 0.9 | 4.3 | 0.00 | 0.00 | 0.00 | 58 | 1021.5 |
| 20260901211753 | 87 | 328 | 0.9 | 4.3 | 0.00 | 0.00 | 0.00 | 58 | 1021.6 |
| 20260901211253 | 88 | 328 | 1.7 | 5.2 | 0.00 | 0.00 | 0.00 | 58 | 1021.5 |
| 20260901210753 | 88 | 328 | 1.7 | 8.7 | 0.00 | 0.00 | 0.00 | 59 | 1021.5 |
| 20260901210253 | 88 | 328 | 1.7 | 8.7 | 0.00 | 0.00 | 0.00 | 56 | 1021.6 |
| 20260901205655 | 88 | 0 | 0.0 | 3.5 | 0.00 | 0.00 | 0.00 | 58 | 1021.8 |
| 20260901205155 | 88 | 0 | 0.0 | 3.5 | 0.00 | 0.00 | 0.00 | 59 | 1021.8 |
| 20260901204652 | 87 | 328 | 0.9 | 5.2 | 0.00 | 0.00 | 0.00 | 58 | 1021.9 |
| 20260901204153 | 87 | 328 | 0.9 | 5.2 | 0.00 | 0.00 | 0.00 | 58 | 1021.9 |
| 20260901203653 | 88 | 0 | 0.0 | 5.2 | 0.00 | 0.00 | 0.00 | 57 | 1022.0 |
| 20260901203153 | 88 | 328 | 0.9 | 5.2 | 0.00 | 0.00 | 0.00 | 57 | 1022.1 |
| 20260901202418 | 89 | 328 | 1.7 | 8.7 | 0.00 | 0.00 | 0.00 | 57 | 1022.1 |
| 20260901201918 | 89 | 328 | 0.9 | 8.7 | 0.00 | 0.00 | 0.00 | 57 | 1022.0 |
| 20260901201422 | 89 | 0 | 0.0 | 4.3 | 0.00 | 0.00 | 0.00 | 56 | 1022.0 |
| 20260901200918 | 89 | 0 | 0.0 | 5.2 | 0.00 | 0.00 | 0.00 | 57 | 1022.0 |
| 20260901200422 | 89 | 329 | 0.9 | 5.2 | 0.00 | 0.00 | 0.00 | 56 | 1022.0 |
| 20260901195918 | 89 | 0 | 0.0 | 3.5 | 0.00 | 0.00 | 0.00 | 57 | 1022.1 |
| 20260901195418 | 89 | 0 | 0.0 | 4.3 | 0.00 | 0.00 | 0.00 | 55 | 1022.2 |
| 20260901194918 | 90 | 329 | 0.9 | 4.3 | 0.00 | 0.00 | 0.00 | 53 | 1022.3 |
| 20260901194420 | 90 | 0 | 0.0 | 3.5 | 0.00 | 0.00 | 0.00 | 56 | 1022.2 |
| 20260901193918 | 89 | 0 | 0.0 | 7.0 | 0.00 | 0.00 | 0.00 | 56 | 1022.2 |
| 20260901193418 | 88 | 0 | 0.0 | 7.0 | 0.00 | 0.00 | 0.00 | 54 | 1022.2 |
| 20260901192919 | 89 | 0 | 0.0 | 7.8 | 0.00 | 0.00 | 0.00 | 55 | 1022.2 |
| 20260901192418 | 89 | 0 | 0.0 | 7.8 | 0.00 | 0.00 | 0.00 | 55 | 1022.4 |
| 20260901191918 | 89 | 0 | 0.0 | 2.6 | 0.00 | 0.00 | 0.00 | 55 | 1022.4 |
| 20260901191418 | 89 | 329 | 0.9 | 5.2 | 0.00 | 0.00 | 0.00 | 54 | 1022.5 |
| 20260901190918 | 88 | 329 | 0.9 | 5.2 | 0.00 | 0.00 | 0.00 | 56 | 1022.5 |
| 20260901190418 | 88 | 329 | 0.9 | 4.3 | 0.00 | 0.00 | 0.00 | 57 | 1022.7 |
| 20260901185918 | 87 | 329 | 1.7 | 5.2 | 0.00 | 0.00 | 0.00 | 58 | 1022.6 |
| 20260901185418 | 87 | 329 | 1.7 | 7.8 | 0.00 | 0.00 | 0.00 | 55 | 1022.6 |
| 20260901184918 | 88 | 329 | 1.7 | 10.4 | 0.00 | 0.00 | 0.00 | 56 | 1022.7 |
| 20260901184418 | 89 | 324 | 3.5 | 10.4 | 0.00 | 0.00 | 0.00 | 55 | 1022.7 |
| 20260901183918 | 89 | 324 | 0.9 | 5.2 | 0.00 | 0.00 | 0.00 | 56 | 1022.7 |
| 20260901183418 | 88 | 323 | 0.9 | 5.2 | 0.00 | 0.00 | 0.00 | 58 | 1022.7 |
| 20260901182918 | 87 | 0 | 0.0 | 10.4 | 0.00 | 0.00 | 0.00 | 60 | 1022.8 |
| 20260901182418 | 87 | 324 | 2.6 | 10.4 | 0.00 | 0.00 | 0.00 | 58 | 1022.8 |
| 20260901181920 | 87 | 323 | 2.6 | 7.0 | 0.00 | 0.00 | 0.00 | 56 | 1022.8 |
| 20260901181418 | 87 | 323 | 1.7 | 10.4 | 0.00 | 0.00 | 0.00 | 58 | 1022.8 |
| 20260901180923 | 87 | 323 | 1.7 | 10.4 | 0.00 | 0.00 | 0.00 | 60 | 1022.8 |
| 20260901180418 | 87 | 323 | 1.7 | 7.8 | 0.00 | 0.00 | 0.00 | 59 | 1022.9 |
| 20260901175918 | 88 | 321 | 1.7 | 7.0 | 0.00 | 0.00 | 0.00 | 58 | 1022.9 |
| 20260901175418 | 87 | 321 | 0.9 | 5.2 | 0.00 | 0.00 | 0.00 | 59 | 1022.9 |
| 20260901174918 | 87 | 0 | 0.0 | 8.7 | 0.00 | 0.00 | 0.00 | 61 | 1022.9 |
| 20260901174418 | 87 | 322 | 0.9 | 8.7 | 0.00 | 0.00 | 0.00 | 60 | 1023.0 |
| 20260901173918 | 87 | 320 | 0.9 | 7.0 | 0.00 | 0.00 | 0.00 | 60 | 1023.0 |
| 20260901173418 | 86 | 320 | 0.9 | 7.0 | 0.00 | 0.00 | 0.00 | 60 | 1022.9 |
| 20260901172918 | 86 | 0 | 0.0 | 8.7 | 0.00 | 0.00 | 0.00 | 61 | 1023.0 |
| 20260901172418 | 86 | 320 | 1.7 | 8.7 | 0.00 | 0.00 | 0.00 | 60 | 1023.0 |
| 20260901171919 | 86 | 319 | 1.7 | 7.0 | 0.00 | 0.00 | 0.00 | 60 | 1023.1 |
| 20260901171418 | 86 | 319 | 1.7 | 7.0 | 0.00 | 0.00 | 0.00 | 62 | 1023.0 |
| 20260901170918 | 87 | 319 | 0.9 | 5.2 | 0.00 | 0.00 | 0.00 | 61 | 1023.1 |
| 20260901170802 | 85 | 0 | 0.0 | 7.8 | 0.00 | 0.00 | 0.00 | 62 | 1023.4 |
| 20260901170759 | 85 | 316 | 0.9 | 8.7 | 0.00 | 0.00 | 0.00 | 63 | 1023.5 |
| 20260901170756 | 85 | 315 | 0.9 | 8.7 | 0.00 | 0.00 | 0.00 | 61 | 1023.5 |
| 20260901170418 | 86 | 319 | 1.7 | 5.2 | 0.00 | 0.00 | 0.00 | 60 | 1023.1 |
| 20260901165918 | 86 | 319 | 1.7 | 5.2 | 0.00 | 0.00 | 0.00 | 62 | 1023.1 |
| 20260901165418 | 86 | 319 | 0.9 | 5.2 | 0.00 | 0.00 | 0.00 | 62 | 1023.2 |
| 20260901164919 | 86 | 319 | 0.9 | 8.7 | 0.00 | 0.00 | 0.00 | 62 | 1023.3 |
| 20260901164418 | 86 | 318 | 2.6 | 8.7 | 0.00 | 0.00 | 0.00 | 61 | 1023.3 |
| 20260901163918 | 85 | 0 | 0.0 | 7.8 | 0.00 | 0.00 | 0.00 | 62 | 1023.4 |
| 20260901163327 | 85 | 316 | 0.9 | 8.7 | 0.00 | 0.00 | 0.00 | 63 | 1023.5 |
| 20260901162827 | 85 | 315 | 0.9 | 8.7 | 0.00 | 0.00 | 0.00 | 61 | 1023.5 |
| 20260901162505 | 82 | 0 | 0.0 | 7.0 | 0.00 | 0.00 | 0.00 | 71 | 1024.0 |
| 20260901162327 | 86 | 0 | 0.0 | 3.5 | 0.00 | 0.00 | 0.00 | 63 | 1023.5 |
| 20260901161827 | 85 | 0 | 0.0 | 5.2 | 0.00 | 0.00 | 0.00 | 65 | 1023.6 |
| 20260901161327 | 85 | 313 | 1.7 | 5.2 | 0.00 | 0.00 | 0.00 | 63 | 1023.6 |
| 20260901160828 | 85 | 0 | 0.0 | 4.3 | 0.00 | 0.00 | 0.00 | 67 | 1023.7 |
| 20260901160327 | 85 | 313 | 1.7 | 4.3 | 0.00 | 0.00 | 0.00 | 66 | 1023.8 |
| 20260901155827 | 85 | 0 | 0.0 | 4.3 | 0.00 | 0.00 | 0.00 | 67 | 1023.7 |
| 20260901155327 | 85 | 0 | 0.0 | 2.6 | 0.00 | 0.00 | 0.00 | 65 | 1023.7 |
| 20260901154827 | 85 | 0 | 0.0 | 2.6 | 0.00 | 0.00 | 0.00 | 67 | 1023.7 |
| 20260901154327 | 84 | 0 | 0.0 | 2.6 | 0.00 | 0.00 | 0.00 | 69 | 1023.7 |
| 20260901153827 | 83 | 0 | 0.0 | 2.6 | 0.00 | 0.00 | 0.00 | 71 | 1023.8 |
| 20260901153327 | 83 | 0 | 0.0 | 3.5 | 0.00 | 0.00 | 0.00 | 72 | 1024.0 |
| 20260901152827 | 83 | 0 | 0.0 | 3.5 | 0.00 | 0.00 | 0.00 | 70 | 1023.9 |
| 20260901152327 | 83 | 0 | 0.0 | 3.5 | 0.00 | 0.00 | 0.00 | 71 | 1024.0 |
| 20260901151827 | 82 | 0 | 0.0 | 7.0 | 0.00 | 0.00 | 0.00 | 71 | 1024.0 |
| 20260901151327 | 82 | 0 | 0.0 | 7.0 | 0.00 | 0.00 | 0.00 | 70 | 1024.0 |
| 20260901150827 | 82 | 0 | 0.0 | 5.2 | 0.00 | 0.00 | 0.00 | 71 | 1024.0 |
| 20260901150327 | 82 | 313 | 0.9 | 5.2 | 0.00 | 0.00 | 0.00 | 69 | 1024.1 |
| 20260901145827 | 82 | 0 | 0.0 | 7.8 | 0.00 | 0.00 | 0.00 | 70 | 1024.1 |
| 20260901145327 | 82 | 313 | 0.9 | 7.8 | 0.00 | 0.00 | 0.00 | 70 | 1024.1 |
| 20260901144827 | 82 | 0 | 0.0 | 4.3 | 0.00 | 0.00 | 0.00 | 70 | 1024.2 |
| 20260901144330 | 81 | 313 | 0.9 | 4.3 | 0.00 | 0.00 | 0.00 | 70 | 1024.3 |
| 20260901144129 | 81 | 313 | 0.9 | 7.0 | 0.00 | 0.00 | 0.00 | 71 | 1024.3 |
| 20260901143828 | 81 | 313 | 0.9 | 7.0 | 0.00 | 0.00 | 0.00 | 71 | 1024.3 |
| 20260901143621 | 81 | 313 | 0.9 | 7.0 | 0.00 | 0.00 | 0.00 | 69 | 1024.3 |
| 20260901143327 | 81 | 313 | 0.9 | 7.0 | 0.00 | 0.00 | 0.00 | 69 | 1024.3 |
| 20260901142915 | 81 | 313 | 0.9 | 4.3 | 0.00 | 0.00 | 0.00 | 70 | 1024.3 |
| 20260901142827 | 81 | 313 | 0.9 | 4.3 | 0.00 | 0.00 | 0.00 | 70 | 1024.3 |
| 20260901142327 | 81 | 313 | 0.9 | 4.3 | 0.00 | 0.00 | 0.00 | 71 | 1024.3 |
| 20260901141828 | 80 | 0 | 0.0 | 4.3 | 0.00 | 0.00 | 0.00 | 70 | 1024.3 |
| 20260901141327 | 81 | 0 | 0.0 | 3.5 | 0.00 | 0.00 | 0.00 | 70 | 1024.2 |
| 20260901140827 | 80 | 0 | 0.0 | 3.5 | 0.00 | 0.00 | 0.00 | 70 | 1024.2 |
| 20260901140327 | 81 | 0 | 0.0 | 3.5 | 0.00 | 0.00 | 0.00 | 68 | 1024.1 |
| 20260901135827 | 81 | 0 | 0.0 | 2.6 | 0.00 | 0.00 | 0.00 | 68 | 1024.1 |
| 20260901135528 | 80 | 0 | 0.0 | 2.6 | 0.00 | 0.00 | 0.00 | 70 | 1024.1 |
| 20260901135228 | 80 | 0 | 0.0 | 2.6 | 0.00 | 0.00 | 0.00 | 70 | 1024.1 |
| 20260901134603 | 80 | 0 | 0.0 | 2.6 | 0.00 | 0.00 | 0.00 | 71 | 1024.1 |
| 20260901134536 | 80 | 0 | 0.0 | 2.6 | 0.00 | 0.00 | 0.00 | 71 | 1024.1 |
| 20260901134103 | 80 | 0 | 0.0 | 2.6 | 0.00 | 0.00 | 0.00 | 71 | 1024.1 |
| 20260901133902 | 79 | 0 | 0.0 | 1.7 | 0.00 | 0.00 | 0.00 | 72 | 1024.0 |
| 20260901133603 | 80 | 0 | 0.0 | 1.7 | 0.00 | 0.00 | 0.00 | 71 | 1024.1 |
| 20260901133103 | 79 | 0 | 0.0 | 1.7 | 0.00 | 0.00 | 0.00 | 71 | 1024.0 |
| 20260901132603 | 79 | 0 | 0.0 | 1.7 | 0.00 | 0.00 | 0.00 | 72 | 1024.0 |
| 20260901132112 | 79 | 0 | 0.0 | 1.7 | 0.00 | 0.00 | 0.00 | 73 | 1024.0 |
| 20260901131605 | 79 | 0 | 0.0 | 2.6 | 0.00 | 0.00 | 0.00 | 74 | 1024.0 |
| 20260901131103 | 79 | 0 | 0.0 | 2.6 | 0.00 | 0.00 | 0.00 | 74 | 1024.1 |
| 20260901130603 | 78 | 0 | 0.0 | 1.7 | 0.00 | 0.00 | 0.00 | 75 | 1024.1 |
| 20260901130148 | 78 | 0 | 0.0 | 0.0 | 0.00 | 0.00 | 0.00 | 75 | 1024.0 |
| 20260901130105 | 78 | 0 | 0.0 | 0.0 | 0.00 | 0.00 | 0.00 | 75 | 1024.0 |
| 20260901125603 | 78 | 0 | 0.0 | 0.0 | 0.00 | 0.00 | 0.00 | 75 | 1024.0 |
| 20260901125103 | 77 | 0 | 0.0 | 0.0 | 0.00 | 0.00 | 0.00 | 75 | 1024.0 |
| 20260901124603 | 77 | 0 | 0.0 | 0.0 | 0.00 | 0.00 | 0.00 | 76 | 1024.0 |
| 20260901124538 | 76 | 0 | 0.0 | 0.0 | 0.00 | 0.00 | 0.00 | 77 | 1024.0 |
| 20260901124110 | 77 | 0 | 0.0 | 0.0 | 0.00 | 0.00 | 0.00 | 76 | 1024.1 |
| 20260901123605 | 77 | 0 | 0.0 | 0.0 | 0.00 | 0.00 | 0.00 | 76 | 1024.0 |
| 20260901123103 | 76 | 0 | 0.0 | 0.0 | 0.00 | 0.00 | 0.00 | 78 | 1024.0 |
| 20260901122603 | 76 | 0 | 0.0 | 0.0 | 0.00 | 0.00 | 0.00 | 77 | 1024.0 |
| 20260901122103 | 76 | 0 | 0.0 | 0.0 | 0.00 | 0.00 | 0.00 | 77 | 1024.0 |
| 20260901121606 | 77 | 0 | 0.0 | 2.6 | 0.00 | 0.00 | 0.00 | 76 | 1023.9 |
| 20260901121111 | 77 | 0 | 0.0 | 2.6 | 0.00 | 0.00 | 0.00 | 75 | 1023.8 |
| 20260901120604 | 77 | 0 | 0.0 | 0.0 | 0.00 | 0.00 | 0.00 | 74 | 1023.7 |
| 20260901120103 | 76 | 0 | 0.0 | 0.0 | 0.00 | 0.00 | 0.00 | 74 | 1023.7 |
| 20260901115605 | 76 | 0 | 0.0 | 0.0 | 0.00 | 0.00 | 0.00 | 74 | 1023.6 |
| 20260901115106 | 76 | 0 | 0.0 | 0.0 | 0.00 | 0.00 | 0.00 | 74 | 1023.6 |
| 20260901114603 | 76 | 0 | 0.0 | 0.0 | 0.00 | 0.00 | 0.00 | 74 | 1023.5 |
| 20260901114103 | 76 | 0 | 0.0 | 0.0 | 0.00 | 0.00 | 0.00 | 75 | 1023.5 |
| 20260901113603 | 76 | 0 | 0.0 | 0.0 | 0.00 | 0.00 | 0.00 | 76 | 1023.4 |
| 20260901113103 | 76 | 0 | 0.0 | 0.0 | 0.00 | 0.00 | 0.00 | 76 | 1023.3 |
| 20260901112609 | 76 | 0 | 0.0 | 0.0 | 0.00 | 0.00 | 0.00 | 76 | 1023.2 |
| 20260901112103 | 76 | 0 | 0.0 | 0.0 | 0.00 | 0.00 | 0.00 | 76 | 1023.2 |
| 20260901111405 | 76 | 0 | 0.0 | 2.6 | 0.00 | 0.00 | 0.00 | 76 | 1023.1 |
| 20260901110904 | 76 | 0 | 0.0 | 2.6 | 0.00 | 0.00 | 0.00 | 76 | 1023.2 |
| 20260901110134 | 75 | 313 | 1.7 | 3.5 | 0.00 | 0.00 | 0.00 | 76 | 1023.0 |
| 20260901105636 | 75 | 313 | 1.7 | 4.3 | 0.00 | 0.00 | 0.00 | 76 | 1023.0 |
| 20260901105137 | 75 | 313 | 2.6 | 4.3 | 0.00 | 0.00 | 0.00 | 76 | 1023.0 |
| 20260901104634 | 75 | 313 | 2.6 | 4.3 | 0.00 | 0.00 | 0.00 | 76 | 1023.0 |
| 20260901104134 | 76 | 313 | 2.6 | 4.3 | 0.00 | 0.00 | 0.00 | 76 | 1022.9 |
| 20260901103634 | 76 | 313 | 2.6 | 3.5 | 0.00 | 0.00 | 0.00 | 76 | 1022.9 |
| 20260901103134 | 76 | 313 | 1.7 | 3.5 | 0.00 | 0.00 | 0.00 | 75 | 1022.8 |
| 20260901102634 | 76 | 313 | 1.7 | 2.6 | 0.00 | 0.00 | 0.00 | 75 | 1022.7 |
| 20260901102134 | 76 | 0 | 0.0 | 0.0 | 0.00 | 0.00 | 0.00 | 75 | 1022.8 |
| 20260901101635 | 76 | 0 | 0.0 | 0.0 | 0.00 | 0.00 | 0.00 | 75 | 1022.8 |
| 20260901101135 | 76 | 0 | 0.0 | 0.0 | 0.00 | 0.00 | 0.00 | 75 | 1022.7 |
| 20260901100640 | 76 | 0 | 0.0 | 0.0 | 0.00 | 0.00 | 0.00 | 75 | 1022.8 |
| 20260901100137 | 76 | 0 | 0.0 | 0.0 | 0.00 | 0.00 | 0.00 | 76 | 1022.7 |
| 20260901095634 | 76 | 0 | 0.0 | 0.0 | 0.00 | 0.00 | 0.00 | 75 | 1022.7 |
| 20260901095135 | 76 | 0 | 0.0 | 0.0 | 0.00 | 0.00 | 0.00 | 75 | 1022.7 |
| 20260901094634 | 77 | 0 | 0.0 | 0.0 | 0.00 | 0.00 | 0.00 | 75 | 1022.7 |
| 20260901094136 | 76 | 0 | 0.0 | 0.0 | 0.00 | 0.00 | 0.00 | 75 | 1022.7 |
| 20260901093635 | 76 | 0 | 0.0 | 0.0 | 0.00 | 0.00 | 0.00 | 75 | 1022.7 |
| 20260901093134 | 76 | 0 | 0.0 | 0.0 | 0.00 | 0.00 | 0.00 | 75 | 1022.7 |
| 20260901092634 | 76 | 0 | 0.0 | 0.0 | 0.00 | 0.00 | 0.00 | 75 | 1022.7 |
| 20260901092138 | 76 | 0 | 0.0 | 0.0 | 0.00 | 0.00 | 0.00 | 76 | 1022.8 |
| 20260901091634 | 75 | 0 | 0.0 | 0.0 | 0.00 | 0.00 | 0.00 | 77 | 1022.8 |
| 20260901091134 | 75 | 0 | 0.0 | 0.0 | 0.00 | 0.00 | 0.00 | 77 | 1022.8 |
| 20260901090634 | 75 | 0 | 0.0 | 0.0 | 0.00 | 0.00 | 0.00 | 77 | 1022.9 |
| 20260901090135 | 75 | 0 | 0.0 | 0.0 | 0.00 | 0.00 | 0.00 | 78 | 1022.8 |
| 20260901085634 | 75 | 0 | 0.0 | 0.0 | 0.00 | 0.00 | 0.00 | 78 | 1022.8 |
| 20260901085134 | 75 | 0 | 0.0 | 0.0 | 0.00 | 0.00 | 0.00 | 79 | 1022.9 |
| 20260901084635 | 75 | 0 | 0.0 | 0.0 | 0.00 | 0.00 | 0.00 | 79 | 1022.8 |
| 20260901084134 | 75 | 0 | 0.0 | 0.0 | 0.00 | 0.00 | 0.00 | 78 | 1022.8 |
| 20260901083634 | 75 | 0 | 0.0 | 0.0 | 0.00 | 0.00 | 0.00 | 78 | 1022.8 |
| 20260901083134 | 75 | 0 | 0.0 | 0.0 | 0.00 | 0.00 | 0.00 | 78 | 1022.8 |
| 20260901082635 | 75 | 0 | 0.0 | 3.5 | 0.00 | 0.00 | 0.00 | 78 | 1022.7 |
| 20260901082135 | 75 | 0 | 0.0 | 4.3 | 0.00 | 0.00 | 0.00 | 77 | 1022.8 |
| 20260901081634 | 76 | 313 | 2.6 | 4.3 | 0.00 | 0.00 | 0.00 | 76 | 1022.9 |
| 20260901081135 | 76 | 0 | 0.0 | 0.0 | 0.00 | 0.00 | 0.00 | 75 | 1022.9 |
| 20260901080634 | 76 | 0 | 0.0 | 0.0 | 0.00 | 0.00 | 0.00 | 75 | 1022.8 |
| 20260901080134 | 76 | 0 | 0.0 | 0.0 | 0.00 | 0.00 | 0.00 | 76 | 1022.9 |
| 20260901075634 | 76 | 0 | 0.0 | 0.0 | 0.00 | 0.00 | 0.00 | 75 | 1023.0 |
| 20260901075134 | 76 | 0 | 0.0 | 0.0 | 0.00 | 0.00 | 0.00 | 75 | 1022.9 |
| 20260901074634 | 76 | 0 | 0.0 | 0.0 | 0.00 | 0.00 | 0.00 | 75 | 1022.9 |
| 20260901074135 | 76 | 0 | 0.0 | 0.0 | 0.00 | 0.00 | 0.00 | 75 | 1023.0 |
| 20260901073634 | 76 | 0 | 0.0 | 1.7 | 0.00 | 0.00 | 0.00 | 75 | 1023.0 |
| 20260901073134 | 76 | 0 | 0.0 | 2.6 | 0.00 | 0.00 | 0.00 | 75 | 1023.1 |
| 20260901072635 | 76 | 313 | 0.9 | 2.6 | 0.00 | 0.00 | 0.00 | 75 | 1023.0 |
| 20260901072135 | 76 | 313 | 0.9 | 4.3 | 0.00 | 0.00 | 0.00 | 75 | 1023.1 |
| 20260901071635 | 76 | 313 | 1.7 | 4.3 | 0.00 | 0.00 | 0.00 | 75 | 1023.2 |
| 20260901071134 | 76 | 313 | 1.7 | 4.3 | 0.00 | 0.00 | 0.00 | 75 | 1023.2 |
| 20260901070635 | 76 | 313 | 1.7 | 4.3 | 0.00 | 0.00 | 0.00 | 75 | 1023.3 |
| 20260901070308 | 77 | 313 | 1.7 | 4.3 | 0.00 | 0.00 | 0.00 | 75 | 1023.3 |
| 20260901070134 | 77 | 313 | 1.7 | 4.3 | 0.00 | 0.00 | 0.00 | 75 | 1023.3 |
| 20260901065634 | 77 | 313 | 1.7 | 3.5 | 0.00 | 0.00 | 0.00 | 74 | 1023.2 |
| 20260901065134 | 77 | 0 | 0.0 | 4.3 | 0.00 | 0.00 | 0.00 | 74 | 1023.3 |
| 20260901064634 | 77 | 0 | 0.0 | 4.3 | 0.00 | 0.00 | 0.00 | 74 | 1023.4 |
| 20260901064134 | 77 | 313 | 0.9 | 2.6 | 0.00 | 0.00 | 0.00 | 75 | 1023.4 |
| 20260901063634 | 77 | 313 | 1.7 | 2.6 | 0.00 | 0.00 | 0.00 | 74 | 1023.5 |
| 20260901063134 | 77 | 313 | 1.7 | 4.3 | 0.00 | 0.00 | 0.00 | 74 | 1023.5 |
| 20260901062635 | 77 | 313 | 1.7 | 4.3 | 0.00 | 0.00 | 0.00 | 74 | 1023.4 |
| 20260901062136 | 77 | 313 | 1.7 | 4.3 | 0.00 | 0.00 | 0.00 | 74 | 1023.4 |
| 20260901061635 | 77 | 313 | 0.9 | 5.2 | 0.00 | 0.00 | 0.00 | 74 | 1023.3 |
| 20260901061138 | 77 | 313 | 1.7 | 5.2 | 0.00 | 0.00 | 0.00 | 74 | 1023.4 |
| 20260901060635 | 77 | 313 | 1.7 | 4.3 | 0.00 | 0.00 | 0.00 | 74 | 1023.5 |
| 20260901060137 | 77 | 313 | 2.6 | 3.5 | 0.00 | 0.00 | 0.00 | 73 | 1023.5 |
| 20260901055635 | 77 | 313 | 1.7 | 3.5 | 0.00 | 0.00 | 0.00 | 73 | 1023.5 |
| 20260901055133 | 78 | 313 | 1.7 | 5.2 | 0.00 | 0.00 | 0.00 | 72 | 1023.6 |
| 20260901054635 | 77 | 0 | 0.0 | 5.2 | 0.00 | 0.00 | 0.00 | 72 | 1023.7 |
| 20260901054135 | 77 | 0 | 0.0 | 5.2 | 0.00 | 0.00 | 0.00 | 73 | 1023.7 |
| 20260901053635 | 77 | 313 | 0.9 | 5.2 | 0.00 | 0.00 | 0.00 | 74 | 1023.7 |
| 20260901053135 | 77 | 313 | 1.7 | 3.5 | 0.00 | 0.00 | 0.00 | 74 | 1023.7 |
| 20260901052634 | 77 | 313 | 1.7 | 4.3 | 0.00 | 0.00 | 0.00 | 74 | 1023.7 |
| 20260901052140 | 77 | 313 | 0.9 | 4.3 | 0.00 | 0.00 | 0.00 | 74 | 1023.8 |
| 20260901051634 | 77 | 313 | 0.9 | 4.3 | 0.00 | 0.00 | 0.00 | 74 | 1023.7 |
| 20260901051138 | 78 | 0 | 0.0 | 3.5 | 0.00 | 0.00 | 0.00 | 74 | 1023.6 |
| 20260901050637 | 78 | 0 | 0.0 | 3.5 | 0.00 | 0.00 | 0.00 | 74 | 1023.8 |
| 20260901050135 | 78 | 313 | 0.9 | 2.6 | 0.00 | 0.00 | 0.00 | 74 | 1023.7 |
| 20260901045635 | 78 | 0 | 0.0 | 2.6 | 0.00 | 0.00 | 0.00 | 74 | 1023.7 |
| 20260901045135 | 77 | 0 | 0.0 | 2.6 | 0.00 | 0.00 | 0.00 | 75 | 1023.7 |
| 20260901044635 | 77 | 0 | 0.0 | 4.3 | 0.00 | 0.00 | 0.00 | 75 | 1023.6 |
| 20260901044135 | 77 | 313 | 0.9 | 4.3 | 0.00 | 0.00 | 0.00 | 75 | 1023.6 |
| 20260901043634 | 78 | 313 | 1.7 | 4.3 | 0.00 | 0.00 | 0.00 | 75 | 1023.6 |
| 20260901043136 | 78 | 313 | 0.9 | 4.3 | 0.00 | 0.00 | 0.00 | 74 | 1023.6 |
| 20260901042635 | 78 | 0 | 0.0 | 4.3 | 0.00 | 0.00 | 0.00 | 74 | 1023.6 |
| 20260901042522 | 78 | 0 | 0.0 | 3.5 | 0.00 | 0.00 | 0.00 | 74 | 1023.7 |
| 20260901042134 | 78 | 0 | 0.0 | 4.3 | 0.00 | 0.00 | 0.00 | 73 | 1023.6 |
| 20260901041633 | 78 | 0 | 0.0 | 3.5 | 0.00 | 0.00 | 0.00 | 74 | 1023.7 |
| 20260901041136 | 78 | 0 | 0.0 | 0.9 | 0.00 | 0.00 | 0.00 | 74 | 1023.6 |
| 20260901040635 | 78 | 0 | 0.0 | 0.9 | 0.00 | 0.00 | 0.00 | 73 | 1023.5 |
| 20260901040134 | 78 | 0 | 0.0 | 1.7 | 0.00 | 0.00 | 0.00 | 73 | 1023.6 |
| 20260901035634 | 78 | 0 | 0.0 | 1.7 | 0.00 | 0.00 | 0.00 | 74 | 1023.6 |
| 20260901035134 | 78 | 0 | 0.0 | 0.9 | 0.00 | 0.00 | 0.00 | 74 | 1023.6 |
| 20260901034633 | 78 | 0 | 0.0 | 1.7 | 0.00 | 0.00 | 0.00 | 74 | 1023.6 |
| 20260901034134 | 78 | 0 | 0.0 | 2.6 | 0.00 | 0.00 | 0.00 | 74 | 1023.6 |
| 20260901033633 | 78 | 0 | 0.0 | 2.6 | 0.00 | 0.00 | 0.00 | 75 | 1023.6 |
| 20260901033134 | 78 | 0 | 0.0 | 4.3 | 0.00 | 0.00 | 0.00 | 75 | 1023.6 |
| 20260901032633 | 78 | 313 | 0.9 | 4.3 | 0.00 | 0.00 | 0.00 | 75 | 1023.6 |
| 20260901032133 | 78 | 0 | 0.0 | 3.5 | 0.00 | 0.00 | 0.00 | 76 | 1023.6 |
| 20260901031633 | 78 | 313 | 0.9 | 3.5 | 0.00 | 0.00 | 0.00 | 77 | 1023.7 |
| 20260901031133 | 77 | 313 | 0.9 | 4.3 | 0.00 | 0.00 | 0.00 | 77 | 1023.8 |
| 20260901030633 | 77 | 313 | 1.7 | 7.0 | 0.00 | 0.00 | 0.00 | 77 | 1023.8 |
| 20260901030134 | 77 | 313 | 1.7 | 7.0 | 0.00 | 0.00 | 0.00 | 79 | 1023.9 |
| 20260901025634 | 77 | 313 | 1.7 | 5.2 | 0.00 | 0.00 | 0.00 | 80 | 1023.8 |
| 20260901025133 | 77 | 313 | 1.7 | 4.3 | 0.00 | 0.00 | 0.00 | 79 | 1023.8 |
| 20260901024638 | 78 | 313 | 1.7 | 4.3 | 0.00 | 0.00 | 0.00 | 79 | 1023.7 |
| 20260901024133 | 78 | 313 | 1.7 | 3.5 | 0.00 | 0.00 | 0.00 | 78 | 1023.7 |
| 20260901023618 | 78 | 313 | 1.7 | 4.3 | 0.00 | 0.00 | 0.00 | 77 | 1023.7 |
| 20260901023024 | 78 | 313 | 1.7 | 3.5 | 0.00 | 0.00 | 0.00 | 76 | 1023.7 |
| 20260901022158 | 78 | 313 | 1.7 | 4.3 | 0.00 | 0.00 | 0.00 | 73 | 1023.6 |
| 20260901021657 | 78 | 313 | 1.7 | 4.3 | 0.00 | 0.00 | 0.00 | 72 | 1023.6 |
| 20260901021158 | 78 | 313 | 2.6 | 4.3 | 0.00 | 0.00 | 0.00 | 73 | 1023.6 |
| 20260901020657 | 78 | 313 | 1.7 | 7.0 | 0.00 | 0.00 | 0.00 | 76 | 1023.5 |
| 20260901020157 | 78 | 313 | 2.6 | 7.0 | 0.00 | 0.00 | 0.00 | 77 | 1023.5 |
| 20260901015657 | 78 | 313 | 2.6 | 5.2 | 0.00 | 0.00 | 0.00 | 76 | 1023.4 |
| 20260901015205 | 78 | 313 | 3.5 | 5.2 | 0.00 | 0.00 | 0.00 | 76 | 1023.4 |
| 20260901014657 | 78 | 313 | 3.5 | 5.2 | 0.00 | 0.00 | 0.00 | 75 | 1023.4 |
| 20260901014158 | 78 | 313 | 2.6 | 5.2 | 0.00 | 0.00 | 0.00 | 75 | 1023.4 |
| 20260901013657 | 78 | 313 | 2.6 | 5.2 | 0.00 | 0.00 | 0.00 | 75 | 1023.3 |
| 20260901013158 | 77 | 313 | 2.6 | 7.0 | 0.00 | 0.00 | 0.00 | 79 | 1023.3 |
| 20260901012658 | 77 | 313 | 3.5 | 7.0 | 0.00 | 0.00 | 0.00 | 80 | 1023.3 |
| 20260901012158 | 77 | 313 | 1.7 | 7.0 | 0.00 | 0.00 | 0.00 | 81 | 1023.2 |
| 20260901011657 | 78 | 313 | 2.6 | 7.0 | 0.00 | 0.00 | 0.00 | 78 | 1023.4 |
| 20260901011158 | 79 | 313 | 4.3 | 7.0 | 0.00 | 0.00 | 0.00 | 75 | 1023.3 |
| 20260901010657 | 79 | 313 | 2.6 | 7.0 | 0.00 | 0.00 | 0.00 | 72 | 1023.2 |
| 20260901010158 | 79 | 313 | 2.6 | 7.0 | 0.00 | 0.00 | 0.00 | 71 | 1023.1 |
| 20260901005657 | 79 | 313 | 0.9 | 7.0 | 0.00 | 0.00 | 0.00 | 71 | 1023.1 |
| 20260901005158 | 79 | 313 | 1.7 | 7.0 | 0.00 | 0.00 | 0.00 | 71 | 1023.0 |
| 20260901004659 | 79 | 313 | 0.9 | 3.5 | 0.00 | 0.00 | 0.00 | 71 | 1023.0 |
| 20260901004159 | 79 | 0 | 0.0 | 3.5 | 0.00 | 0.00 | 0.00 | 71 | 1023.0 |
| 20260901003339 | 79 | 313 | 0.9 | 5.2 | 0.00 | 0.00 | 0.00 | 73 | 1022.9 |
| 20260901002839 | 78 | 313 | 0.9 | 5.2 | 0.00 | 0.00 | 0.00 | 74 | 1022.9 |
| 20260901002338 | 78 | 313 | 1.7 | 5.2 | 0.00 | 0.00 | 0.00 | 76 | 1022.9 |
| 20260901001838 | 78 | 313 | 1.7 | 7.0 | 0.00 | 0.00 | 0.00 | 78 | 1022.9 |
| 20260901001338 | 78 | 313 | 2.6 | 7.0 | 0.00 | 0.00 | 0.00 | 78 | 1022.8 |
| 20260901000840 | 79 | 313 | 2.6 | 5.2 | 0.00 | 0.00 | 0.00 | 78 | 1022.8 |
| 20260901000339 | 79 | 313 | 1.7 | 4.3 | 0.00 | 0.00 | 0.00 | 79 | 1022.8 |
| 20260831235838 | 79 | 313 | 0.9 | 4.3 | 0.00 | 0.00 | 0.00 | 77 | 1022.7 |
| 20260831235340 | 80 | 0 | 0.0 | 2.6 | 0.00 | 0.00 | 0.00 | 75 | 1022.7 |
| 20260831234840 | 80 | 313 | 0.9 | 4.3 | 0.00 | 0.00 | 0.00 | 74 | 1022.7 |
| 20260831234338 | 80 | 313 | 0.9 | 4.3 | 0.00 | 0.00 | 0.00 | 76 | 1022.7 |
| 20260831233838 | 80 | 0 | 0.0 | 1.7 | 0.00 | 0.00 | 0.00 | 74 | 1022.7 |
| 20260831233338 | 81 | 0 | 0.0 | 0.0 | 0.00 | 0.00 | 0.00 | 72 | 1022.7 |
| 20260831232838 | 81 | 0 | 0.0 | 0.0 | 0.00 | 0.00 | 0.00 | 72 | 1022.7 |
| 20260831232338 | 81 | 0 | 0.0 | 0.0 | 0.00 | 0.00 | 0.00 | 71 | 1022.7 |
| 20260831231838 | 81 | 0 | 0.0 | 0.0 | 0.00 | 0.00 | 0.00 | 72 | 1022.8 |
| 20260831231339 | 82 | 0 | 0.0 | 0.0 | 0.00 | 0.00 | 0.00 | 70 | 1022.9 |
| 20260831230838 | 82 | 0 | 0.0 | 0.0 | 0.00 | 0.00 | 0.00 | 71 | 1022.9 |
| 20260831230338 | 82 | 0 | 0.0 | 0.0 | 0.00 | 0.00 | 0.00 | 70 | 1023.0 |
| 20260831225841 | 82 | 0 | 0.0 | 0.0 | 0.00 | 0.00 | 0.00 | 70 | 1022.9 |
| 20260831225338 | 83 | 0 | 0.0 | 0.9 | 0.00 | 0.00 | 0.00 | 69 | 1023.0 |
| 20260831224838 | 83 | 0 | 0.0 | 0.9 | 0.00 | 0.00 | 0.00 | 67 | 1023.0 |
| 20260831224338 | 83 | 0 | 0.0 | 0.0 | 0.00 | 0.00 | 0.00 | 67 | 1022.9 |
| 20260831223838 | 83 | 0 | 0.0 | 0.0 | 0.00 | 0.00 | 0.00 | 67 | 1023.0 |
| 20260831223338 | 83 | 0 | 0.0 | 0.0 | 0.00 | 0.00 | 0.00 | 65 | 1023.0 |
| 20260831222838 | 83 | 0 | 0.0 | 0.0 | 0.00 | 0.00 | 0.00 | 64 | 1023.0 |
| 20260831222338 | 83 | 0 | 0.0 | 0.0 | 0.00 | 0.00 | 0.00 | 64 | 1023.0 |
| 20260831221838 | 83 | 0 | 0.0 | 0.0 | 0.00 | 0.00 | 0.00 | 64 | 1023.0 |
| 20260831221338 | 84 | 0 | 0.0 | 0.0 | 0.00 | 0.00 | 0.00 | 64 | 1022.0 |
| 20260831220838 | 84 | 0 | 0.0 | 0.9 | 0.00 | 0.00 | 0.00 | 65 | 1022.1 |